KFSM/FSM METAR and TAF weather

Enter ICAO airport designator
Station Type Date Time Source
KFSM METAR 2021/05/12 22:53 UTC NOAA

KFSM 122253Z 36004KT 10SM OVC060 19/09 A3024 RMK AO2 SLP239 T01940094


Station Type Date Time Source
KFSM Decoded METAR 2021/05/12 22:53 UTC NOAA

FORT SMITH REGIONAL AIRPORT, AR, United States (KFSM) 35-20N 94-22W 140M
May 12, 2021 - 06:53 PM EDT / 2021.05.12 2253 UTC
Wind: from the N (360 degrees) at 5 MPH (4 KT):0
Visibility: 10 mile(s):0
Sky conditions: overcast
Temperature: 66.9 F (19.4 C)
Dew Point: 48.9 F (9.4 C)
Relative Humidity: 52%
Pressure (altimeter): 30.24 in. Hg (1024 hPa)
ob: KFSM 122253Z 36004KT 10SM OVC060 19/09 A3024 RMK AO2 SLP239 T01940094
cycle: 23

Station Type Date Time Source
KFSM TAF 2021/05/12 18:21 UTC NOAA

TAF KFSM 121720Z 1218/1318 08011KT P6SM FEW025 BKN040
FM130100 VRB03KT P6SM SCT060 SCT250

Example: see airport list